sensor_id;sensor_type;location;lat;lon;timestamp;temperature;humidity
2226;DHT22;1119;48.288;8.726;2023-09-19T00:00:22;17.30;99.90
2226;DHT22;1119;48.288;8.726;2023-09-19T00:02:53;17.40;99.90
2226;DHT22;1119;48.288;8.726;2023-09-19T00:05:25;17.50;99.90
2226;DHT22;1119;48.288;8.726;2023-09-19T00:07:54;17.60;99.90
2226;DHT22;1119;48.288;8.726;2023-09-19T00:10:24;17.60;99.90
2226;DHT22;1119;48.288;8.726;2023-09-19T00:12:54;17.70;99.90
2226;DHT22;1119;48.288;8.726;2023-09-19T00:15:22;17.70;99.90
2226;DHT22;1119;48.288;8.726;2023-09-19T00:17:51;17.70;99.90
2226;DHT22;1119;48.288;8.726;2023-09-19T00:20:21;17.70;99.90
2226;DHT22;1119;48.288;8.726;2023-09-19T00:22:49;17.60;99.90
2226;DHT22;1119;48.288;8.726;2023-09-19T00:25:17;17.60;99.90
2226;DHT22;1119;48.288;8.726;2023-09-19T00:27:45;17.60;99.90
2226;DHT22;1119;48.288;8.726;2023-09-19T00:30:17;17.50;99.90
2226;DHT22;1119;48.288;8.726;2023-09-19T00:32:47;17.50;99.90
2226;DHT22;1119;48.288;8.726;2023-09-19T00:35:15;17.50;99.90
2226;DHT22;1119;48.288;8.726;2023-09-19T00:37:42;17.50;99.90
2226;DHT22;1119;48.288;8.726;2023-09-19T00:40:11;17.40;99.90
2226;DHT22;1119;48.288;8.726;2023-09-19T00:42:41;17.30;99.90
2226;DHT22;1119;48.288;8.726;2023-09-19T00:45:10;17.20;99.90
2226;DHT22;1119;48.288;8.726;2023-09-19T00:47:42;17.10;99.90
2226;DHT22;1119;48.288;8.726;2023-09-19T00:50:11;17.10;99.90
2226;DHT22;1119;48.288;8.726;2023-09-19T00:52:40;17.10;99.90
2226;DHT22;1119;48.288;8.726;2023-09-19T00:55:10;17.10;99.90
2226;DHT22;1119;48.288;8.726;2023-09-19T00:57:39;17.10;99.90
2226;DHT22;1119;48.288;8.726;2023-09-19T01:00:08;17.20;99.90
2226;DHT22;1119;48.288;8.726;2023-09-19T01:02:43;17.20;99.90
2226;DHT22;1119;48.288;8.726;2023-09-19T01:05:12;17.20;99.90
2226;DHT22;1119;48.288;8.726;2023-09-19T01:07:40;17.20;99.90
2226;DHT22;1119;48.288;8.726;2023-09-19T01:10:09;17.20;99.90
2226;DHT22;1119;48.288;8.726;2023-09-19T01:12:46;17.20;99.90
2226;DHT22;1119;48.288;8.726;2023-09-19T01:15:21;17.10;99.90
2226;DHT22;1119;48.288;8.726;2023-09-19T01:18:00;17.10;99.90
2226;DHT22;1119;48.288;8.726;2023-09-19T01:20:37;17.00;99.90
2226;DHT22;1119;48.288;8.726;2023-09-19T01:23:13;17.10;99.90
2226;DHT22;1119;48.288;8.726;2023-09-19T01:26:05;17.10;99.90
2226;DHT22;1119;48.288;8.726;2023-09-19T01:29:11;17.10;99.90
2226;DHT22;1119;48.288;8.726;2023-09-19T01:31:49;17.00;99.90
2226;DHT22;1119;48.288;8.726;2023-09-19T01:34:20;17.00;99.90
2226;DHT22;1119;48.288;8.726;2023-09-19T01:36:47;17.00;99.90
2226;DHT22;1119;48.288;8.726;2023-09-19T01:39:14;17.00;99.90
2226;DHT22;1119;48.288;8.726;2023-09-19T01:41:51;17.10;99.90
2226;DHT22;1119;48.288;8.726;2023-09-19T01:44:36;17.10;99.90
2226;DHT22;1119;48.288;8.726;2023-09-19T01:47:17;17.10;99.90
2226;DHT22;1119;48.288;8.726;2023-09-19T01:49:55;17.20;99.90
2226;DHT22;1119;48.288;8.726;2023-09-19T01:52:28;17.20;99.90
2226;DHT22;1119;48.288;8.726;2023-09-19T01:55:09;17.20;99.90
2226;DHT22;1119;48.288;8.726;2023-09-19T01:57:48;17.20;99.90
2226;DHT22;1119;48.288;8.726;2023-09-19T02:00:20;17.10;99.90
2226;DHT22;1119;48.288;8.726;2023-09-19T02:02:51;17.20;99.90
2226;DHT22;1119;48.288;8.726;2023-09-19T02:05:25;17.20;99.90
2226;DHT22;1119;48.288;8.726;2023-09-19T02:07:53;17.10;99.90
2226;DHT22;1119;48.288;8.726;2023-09-19T02:10:22;17.10;99.90
2226;DHT22;1119;48.288;8.726;2023-09-19T02:12:50;17.20;99.90
2226;DHT22;1119;48.288;8.726;2023-09-19T02:15:19;17.20;99.90
2226;DHT22;1119;48.288;8.726;2023-09-19T02:17:47;17.20;99.90
2226;DHT22;1119;48.288;8.726;2023-09-19T02:20:16;17.20;99.90
2226;DHT22;1119;48.288;8.726;2023-09-19T02:22:45;17.20;99.90
2226;DHT22;1119;48.288;8.726;2023-09-19T02:25:15;17.30;99.90
2226;DHT22;1119;48.288;8.726;2023-09-19T02:27:43;17.30;99.90
2226;DHT22;1119;48.288;8.726;2023-09-19T02:30:11;17.30;99.90
2226;DHT22;1119;48.288;8.726;2023-09-19T02:32:41;17.30;99.90
2226;DHT22;1119;48.288;8.726;2023-09-19T02:35:09;17.30;99.90
2226;DHT22;1119;48.288;8.726;2023-09-19T02:37:38;17.20;99.90
2226;DHT22;1119;48.288;8.726;2023-09-19T02:40:07;17.20;99.90
2226;DHT22;1119;48.288;8.726;2023-09-19T02:42:44;17.20;99.90
2226;DHT22;1119;48.288;8.726;2023-09-19T02:45:15;17.20;99.90
2226;DHT22;1119;48.288;8.726;2023-09-19T02:47:44;17.30;99.90
2226;DHT22;1119;48.288;8.726;2023-09-19T02:50:11;17.40;99.90
2226;DHT22;1119;48.288;8.726;2023-09-19T02:52:43;17.40;99.90
2226;DHT22;1119;48.288;8.726;2023-09-19T02:55:13;17.50;99.90
2226;DHT22;1119;48.288;8.726;2023-09-19T02:57:46;17.40;99.90
2226;DHT22;1119;48.288;8.726;2023-09-19T03:00:14;17.50;99.90
2226;DHT22;1119;48.288;8.726;2023-09-19T03:02:42;17.50;99.90
2226;DHT22;1119;48.288;8.726;2023-09-19T03:05:12;17.40;99.90
2226;DHT22;1119;48.288;8.726;2023-09-19T03:07:40;17.40;99.90
2226;DHT22;1119;48.288;8.726;2023-09-19T03:10:10;17.40;99.90
2226;DHT22;1119;48.288;8.726;2023-09-19T03:12:38;17.30;99.90
2226;DHT22;1119;48.288;8.726;2023-09-19T03:15:07;17.30;99.90
2226;DHT22;1119;48.288;8.726;2023-09-19T03:17:36;17.30;99.90
2226;DHT22;1119;48.288;8.726;2023-09-19T03:20:04;17.20;99.90
2226;DHT22;1119;48.288;8.726;2023-09-19T03:22:34;17.10;99.90
2226;DHT22;1119;48.288;8.726;2023-09-19T03:25:02;17.00;99.90
2226;DHT22;1119;48.288;8.726;2023-09-19T03:27:39;16.90;99.90
2226;DHT22;1119;48.288;8.726;2023-09-19T03:30:07;16.90;99.90
2226;DHT22;1119;48.288;8.726;2023-09-19T03:32:35;16.90;99.90
2226;DHT22;1119;48.288;8.726;2023-09-19T03:35:04;16.90;99.90
2226;DHT22;1119;48.288;8.726;2023-09-19T03:37:32;16.90;99.90
2226;DHT22;1119;48.288;8.726;2023-09-19T03:39:59;16.90;99.90
2226;DHT22;1119;48.288;8.726;2023-09-19T03:42:31;16.90;99.90
2226;DHT22;1119;48.288;8.726;2023-09-19T03:45:00;17.00;99.90
2226;DHT22;1119;48.288;8.726;2023-09-19T03:47:30;17.00;99.90
2226;DHT22;1119;48.288;8.726;2023-09-19T03:49:59;17.10;99.90
2226;DHT22;1119;48.288;8.726;2023-09-19T03:52:26;17.00;99.90
2226;DHT22;1119;48.288;8.726;2023-09-19T03:54:54;17.10;99.90
2226;DHT22;1119;48.288;8.726;2023-09-19T03:57:21;17.10;99.90
2226;DHT22;1119;48.288;8.726;2023-09-19T03:59:50;17.20;99.90
2226;DHT22;1119;48.288;8.726;2023-09-19T04:02:20;17.20;99.90
2226;DHT22;1119;48.288;8.726;2023-09-19T04:04:51;17.20;99.90
2226;DHT22;1119;48.288;8.726;2023-09-19T04:07:19;17.20;99.90
2226;DHT22;1119;48.288;8.726;2023-09-19T04:09:48;17.10;99.90
2226;DHT22;1119;48.288;8.726;2023-09-19T04:12:15;17.10;99.90
2226;DHT22;1119;48.288;8.726;2023-09-19T04:14:44;17.10;99.90
2226;DHT22;1119;48.288;8.726;2023-09-19T04:17:13;17.00;99.90
2226;DHT22;1119;48.288;8.726;2023-09-19T04:19:42;17.00;99.90
2226;DHT22;1119;48.288;8.726;2023-09-19T04:22:11;17.00;99.90
2226;DHT22;1119;48.288;8.726;2023-09-19T04:24:39;17.00;99.90
2226;DHT22;1119;48.288;8.726;2023-09-19T04:27:06;16.90;99.90
2226;DHT22;1119;48.288;8.726;2023-09-19T04:29:34;16.90;99.90
2226;DHT22;1119;48.288;8.726;2023-09-19T04:32:01;16.90;99.90
2226;DHT22;1119;48.288;8.726;2023-09-19T04:34:31;16.80;99.90
2226;DHT22;1119;48.288;8.726;2023-09-19T04:37:01;16.70;99.90
2226;DHT22;1119;48.288;8.726;2023-09-19T04:39:29;16.60;99.90
2226;DHT22;1119;48.288;8.726;2023-09-19T04:41:56;16.60;99.90
2226;DHT22;1119;48.288;8.726;2023-09-19T04:44:24;16.60;99.90
2226;DHT22;1119;48.288;8.726;2023-09-19T04:46:51;16.60;99.90
2226;DHT22;1119;48.288;8.726;2023-09-19T04:49:19;16.60;99.90
2226;DHT22;1119;48.288;8.726;2023-09-19T04:51:46;16.60;99.90
2226;DHT22;1119;48.288;8.726;2023-09-19T04:54:14;16.60;99.90
2226;DHT22;1119;48.288;8.726;2023-09-19T04:56:43;16.60;99.90
2226;DHT22;1119;48.288;8.726;2023-09-19T04:59:11;16.70;99.90
2226;DHT22;1119;48.288;8.726;2023-09-19T05:01:38;16.70;99.90
2226;DHT22;1119;48.288;8.726;2023-09-19T05:04:05;16.70;99.90
2226;DHT22;1119;48.288;8.726;2023-09-19T05:06:33;16.80;99.90
2226;DHT22;1119;48.288;8.726;2023-09-19T05:09:01;16.80;99.90
2226;DHT22;1119;48.288;8.726;2023-09-19T05:11:32;16.90;99.90
2226;DHT22;1119;48.288;8.726;2023-09-19T05:13:59;16.80;99.90
2226;DHT22;1119;48.288;8.726;2023-09-19T05:16:29;16.80;99.90
2226;DHT22;1119;48.288;8.726;2023-09-19T05:18:57;16.90;99.90
2226;DHT22;1119;48.288;8.726;2023-09-19T05:21:25;16.90;99.90
2226;DHT22;1119;48.288;8.726;2023-09-19T05:23:54;17.00;99.90
2226;DHT22;1119;48.288;8.726;2023-09-19T05:26:22;17.00;99.90
2226;DHT22;1119;48.288;8.726;2023-09-19T05:28:51;17.00;99.90
2226;DHT22;1119;48.288;8.726;2023-09-19T05:31:18;17.00;99.90
2226;DHT22;1119;48.288;8.726;2023-09-19T05:33:46;17.10;99.90
2226;DHT22;1119;48.288;8.726;2023-09-19T05:36:13;17.10;99.90
2226;DHT22;1119;48.288;8.726;2023-09-19T05:38:43;17.40;99.90
2226;DHT22;1119;48.288;8.726;2023-09-19T05:41:10;17.30;99.90
2226;DHT22;1119;48.288;8.726;2023-09-19T05:43:39;17.20;99.90
2226;DHT22;1119;48.288;8.726;2023-09-19T05:46:08;16.90;99.90
2226;DHT22;1119;48.288;8.726;2023-09-19T05:48:35;16.70;99.90
2226;DHT22;1119;48.288;8.726;2023-09-19T05:51:05;16.70;99.90
2226;DHT22;1119;48.288;8.726;2023-09-19T05:53:32;16.70;99.90
2226;DHT22;1119;48.288;8.726;2023-09-19T05:56:00;16.70;99.90
2226;DHT22;1119;48.288;8.726;2023-09-19T05:58:27;16.80;99.90
2226;DHT22;1119;48.288;8.726;2023-09-19T06:00:55;16.80;99.90
2226;DHT22;1119;48.288;8.726;2023-09-19T06:03:24;16.70;99.90
2226;DHT22;1119;48.288;8.726;2023-09-19T06:05:52;16.70;99.90
2226;DHT22;1119;48.288;8.726;2023-09-19T06:08:23;16.70;99.90
2226;DHT22;1119;48.288;8.726;2023-09-19T06:10:51;16.60;99.90
2226;DHT22;1119;48.288;8.726;2023-09-19T06:13:19;16.70;99.90
2226;DHT22;1119;48.288;8.726;2023-09-19T06:15:47;16.70;99.90
2226;DHT22;1119;48.288;8.726;2023-09-19T06:18:15;16.70;99.90
2226;DHT22;1119;48.288;8.726;2023-09-19T06:20:47;16.70;99.90
2226;DHT22;1119;48.288;8.726;2023-09-19T06:23:16;16.80;99.90
2226;DHT22;1119;48.288;8.726;2023-09-19T06:25:45;16.80;99.90
2226;DHT22;1119;48.288;8.726;2023-09-19T06:28:13;16.90;99.90
2226;DHT22;1119;48.288;8.726;2023-09-19T06:30:40;17.00;99.90
2226;DHT22;1119;48.288;8.726;2023-09-19T06:33:08;17.10;99.90
2226;DHT22;1119;48.288;8.726;2023-09-19T06:35:38;17.20;99.90
2226;DHT22;1119;48.288;8.726;2023-09-19T06:38:09;17.30;99.90
2226;DHT22;1119;48.288;8.726;2023-09-19T06:40:38;17.60;99.90
2226;DHT22;1119;48.288;8.726;2023-09-19T06:43:09;17.70;99.90
2226;DHT22;1119;48.288;8.726;2023-09-19T06:45:37;17.80;99.90
2226;DHT22;1119;48.288;8.726;2023-09-19T06:48:05;17.90;99.90
2226;DHT22;1119;48.288;8.726;2023-09-19T06:50:33;17.90;99.90
2226;DHT22;1119;48.288;8.726;2023-09-19T06:53:01;17.90;99.90
2226;DHT22;1119;48.288;8.726;2023-09-19T06:55:30;18.00;99.90
2226;DHT22;1119;48.288;8.726;2023-09-19T06:57:57;17.90;99.90
2226;DHT22;1119;48.288;8.726;2023-09-19T07:00:25;17.90;99.90
2226;DHT22;1119;48.288;8.726;2023-09-19T07:02:57;17.90;99.90
2226;DHT22;1119;48.288;8.726;2023-09-19T07:05:27;17.80;99.90
2226;DHT22;1119;48.288;8.726;2023-09-19T07:07:55;17.60;99.90
2226;DHT22;1119;48.288;8.726;2023-09-19T07:10:24;17.50;99.90
2226;DHT22;1119;48.288;8.726;2023-09-19T07:13:04;17.40;99.90
2226;DHT22;1119;48.288;8.726;2023-09-19T07:15:34;17.10;99.90
2226;DHT22;1119;48.288;8.726;2023-09-19T07:18:05;17.00;99.90
2226;DHT22;1119;48.288;8.726;2023-09-19T07:20:37;16.80;99.90
2226;DHT22;1119;48.288;8.726;2023-09-19T07:23:04;16.80;99.90
2226;DHT22;1119;48.288;8.726;2023-09-19T07:25:32;16.80;99.90
2226;DHT22;1119;48.288;8.726;2023-09-19T07:27:59;16.70;99.90
2226;DHT22;1119;48.288;8.726;2023-09-19T07:30:28;16.70;99.90
2226;DHT22;1119;48.288;8.726;2023-09-19T07:32:56;16.80;99.90
2226;DHT22;1119;48.288;8.726;2023-09-19T07:35:24;16.70;99.90
2226;DHT22;1119;48.288;8.726;2023-09-19T07:37:51;16.80;99.90
2226;DHT22;1119;48.288;8.726;2023-09-19T07:40:19;16.70;99.90
2226;DHT22;1119;48.288;8.726;2023-09-19T07:42:50;16.70;99.90
2226;DHT22;1119;48.288;8.726;2023-09-19T07:45:17;16.70;99.90
2226;DHT22;1119;48.288;8.726;2023-09-19T07:47:46;16.80;99.90
2226;DHT22;1119;48.288;8.726;2023-09-19T07:50:15;16.90;99.90
2226;DHT22;1119;48.288;8.726;2023-09-19T07:52:44;16.90;99.90
2226;DHT22;1119;48.288;8.726;2023-09-19T07:55:12;16.90;99.90
2226;DHT22;1119;48.288;8.726;2023-09-19T07:57:42;16.90;99.90
2226;DHT22;1119;48.288;8.726;2023-09-19T08:00:10;16.90;99.90
2226;DHT22;1119;48.288;8.726;2023-09-19T08:02:39;17.00;99.90
2226;DHT22;1119;48.288;8.726;2023-09-19T08:05:10;17.00;99.90
2226;DHT22;1119;48.288;8.726;2023-09-19T08:07:43;17.10;99.90
2226;DHT22;1119;48.288;8.726;2023-09-19T08:10:14;17.30;99.90
2226;DHT22;1119;48.288;8.726;2023-09-19T08:12:45;17.40;99.90
2226;DHT22;1119;48.288;8.726;2023-09-19T08:15:13;17.60;99.90
2226;DHT22;1119;48.288;8.726;2023-09-19T08:17:41;17.80;99.90
2226;DHT22;1119;48.288;8.726;2023-09-19T08:20:11;18.00;99.90
2226;DHT22;1119;48.288;8.726;2023-09-19T08:22:43;18.10;99.90
2226;DHT22;1119;48.288;8.726;2023-09-19T08:25:13;18.10;99.90
2226;DHT22;1119;48.288;8.726;2023-09-19T08:27:43;18.20;99.90
2226;DHT22;1119;48.288;8.726;2023-09-19T08:30:14;18.20;99.90
2226;DHT22;1119;48.288;8.726;2023-09-19T08:32:41;18.30;99.90
2226;DHT22;1119;48.288;8.726;2023-09-19T08:35:11;18.30;99.90
2226;DHT22;1119;48.288;8.726;2023-09-19T08:37:38;18.20;99.90
2226;DHT22;1119;48.288;8.726;2023-09-19T08:40:06;18.20;99.90
2226;DHT22;1119;48.288;8.726;2023-09-19T08:42:48;18.10;99.90
2226;DHT22;1119;48.288;8.726;2023-09-19T08:45:16;18.40;99.90
2226;DHT22;1119;48.288;8.726;2023-09-19T08:47:46;18.90;99.90
2226;DHT22;1119;48.288;8.726;2023-09-19T08:50:26;19.60;99.90
2226;DHT22;1119;48.288;8.726;2023-09-19T08:52:55;20.40;99.90
2226;DHT22;1119;48.288;8.726;2023-09-19T08:55:27;20.90;98.40
2226;DHT22;1119;48.288;8.726;2023-09-19T08:58:00;21.10;96.80
2226;DHT22;1119;48.288;8.726;2023-09-19T09:00:29;21.10;95.90
2226;DHT22;1119;48.288;8.726;2023-09-19T09:02:58;20.90;96.40
2226;DHT22;1119;48.288;8.726;2023-09-19T09:05:30;20.70;96.40
2226;DHT22;1119;48.288;8.726;2023-09-19T09:07:58;20.40;96.20
2226;DHT22;1119;48.288;8.726;2023-09-19T09:10:26;20.00;96.30
2226;DHT22;1119;48.288;8.726;2023-09-19T09:12:54;19.80;97.10
2226;DHT22;1119;48.288;8.726;2023-09-19T09:15:22;19.90;97.20
2226;DHT22;1119;48.288;8.726;2023-09-19T09:17:51;20.10;96.90
2226;DHT22;1119;48.288;8.726;2023-09-19T09:20:19;20.30;96.70
2226;DHT22;1119;48.288;8.726;2023-09-19T09:22:52;20.30;96.30
2226;DHT22;1119;48.288;8.726;2023-09-19T09:25:21;20.30;96.20
2226;DHT22;1119;48.288;8.726;2023-09-19T09:27:59;20.00;96.00
2226;DHT22;1119;48.288;8.726;2023-09-19T09:30:34;19.90;96.90
2226;DHT22;1119;48.288;8.726;2023-09-19T09:33:09;19.70;96.90
2226;DHT22;1119;48.288;8.726;2023-09-19T09:35:46;19.60;97.60
2226;DHT22;1119;48.288;8.726;2023-09-19T09:38:20;19.50;97.10
2226;DHT22;1119;48.288;8.726;2023-09-19T09:40:52;19.20;97.90
2226;DHT22;1119;48.288;8.726;2023-09-19T09:43:30;19.00;97.60
2226;DHT22;1119;48.288;8.726;2023-09-19T09:46:11;18.90;98.40
2226;DHT22;1119;48.288;8.726;2023-09-19T09:48:59;19.00;98.50
2226;DHT22;1119;48.288;8.726;2023-09-19T09:51:59;19.20;99.60
2226;DHT22;1119;48.288;8.726;2023-09-19T09:54:33;19.60;99.20
2226;DHT22;1119;48.288;8.726;2023-09-19T09:57:03;20.00;97.50
2226;DHT22;1119;48.288;8.726;2023-09-19T09:59:47;20.30;97.50
2226;DHT22;1119;48.288;8.726;2023-09-19T10:02:21;20.60;96.60
2226;DHT22;1119;48.288;8.726;2023-09-19T10:04:55;20.90;96.90
2226;DHT22;1119;48.288;8.726;2023-09-19T10:07:36;21.20;95.30
2226;DHT22;1119;48.288;8.726;2023-09-19T10:10:08;21.20;94.80
2226;DHT22;1119;48.288;8.726;2023-09-19T10:12:55;21.30;94.20
2226;DHT22;1119;48.288;8.726;2023-09-19T10:15:32;21.10;94.40
2226;DHT22;1119;48.288;8.726;2023-09-19T10:18:01;21.20;94.10
2226;DHT22;1119;48.288;8.726;2023-09-19T10:20:28;21.20;93.20
2226;DHT22;1119;48.288;8.726;2023-09-19T10:23:07;21.30;92.70
2226;DHT22;1119;48.288;8.726;2023-09-19T10:25:39;21.40;93.00
2226;DHT22;1119;48.288;8.726;2023-09-19T10:28:08;21.40;92.60
2226;DHT22;1119;48.288;8.726;2023-09-19T10:30:41;21.50;91.80
2226;DHT22;1119;48.288;8.726;2023-09-19T10:33:11;21.60;91.50
2226;DHT22;1119;48.288;8.726;2023-09-19T10:35:42;21.50;90.60
2226;DHT22;1119;48.288;8.726;2023-09-19T10:38:12;21.40;91.10
2226;DHT22;1119;48.288;8.726;2023-09-19T10:40:41;21.50;91.30
2226;DHT22;1119;48.288;8.726;2023-09-19T10:43:16;21.50;90.80
2226;DHT22;1119;48.288;8.726;2023-09-19T10:45:44;21.60;88.10
2226;DHT22;1119;48.288;8.726;2023-09-19T10:48:15;21.40;87.10
2226;DHT22;1119;48.288;8.726;2023-09-19T10:50:49;21.20;86.60
2226;DHT22;1119;48.288;8.726;2023-09-19T10:53:20;21.10;88.20
2226;DHT22;1119;48.288;8.726;2023-09-19T10:55:59;21.10;88.40
2226;DHT22;1119;48.288;8.726;2023-09-19T10:58:36;21.30;90.00
2226;DHT22;1119;48.288;8.726;2023-09-19T11:01:05;21.50;85.40
2226;DHT22;1119;48.288;8.726;2023-09-19T11:03:38;21.60;86.60
2226;DHT22;1119;48.288;8.726;2023-09-19T11:06:11;21.80;86.10
2226;DHT22;1119;48.288;8.726;2023-09-19T11:09:00;21.90;85.10
2226;DHT22;1119;48.288;8.726;2023-09-19T11:11:50;21.80;85.90
2226;DHT22;1119;48.288;8.726;2023-09-19T11:14:39;21.90;86.20
2226;DHT22;1119;48.288;8.726;2023-09-19T11:17:41;21.90;83.30
2226;DHT22;1119;48.288;8.726;2023-09-19T11:20:24;21.90;84.80
2226;DHT22;1119;48.288;8.726;2023-09-19T11:23:20;21.90;83.40
2226;DHT22;1119;48.288;8.726;2023-09-19T11:25:50;21.90;82.70
2226;DHT22;1119;48.288;8.726;2023-09-19T11:28:34;22.00;82.60
2226;DHT22;1119;48.288;8.726;2023-09-19T11:34:41;22.10;81.40
2226;DHT22;1119;48.288;8.726;2023-09-19T11:40:37;22.40;80.20
2226;DHT22;1119;48.288;8.726;2023-09-19T11:43:30;22.20;79.30
2226;DHT22;1119;48.288;8.726;2023-09-19T11:46:06;22.00;79.40
2226;DHT22;1119;48.288;8.726;2023-09-19T11:48:35;21.90;81.70
2226;DHT22;1119;48.288;8.726;2023-09-19T11:51:17;21.90;81.90
2226;DHT22;1119;48.288;8.726;2023-09-19T11:53:53;21.90;80.40
2226;DHT22;1119;48.288;8.726;2023-09-19T11:56:23;22.00;78.10
2226;DHT22;1119;48.288;8.726;2023-09-19T11:58:54;21.80;76.90
2226;DHT22;1119;48.288;8.726;2023-09-19T12:01:28;21.90;80.00
2226;DHT22;1119;48.288;8.726;2023-09-19T12:03:59;22.00;80.50
2226;DHT22;1119;48.288;8.726;2023-09-19T12:06:29;22.10;79.80
2226;DHT22;1119;48.288;8.726;2023-09-19T12:08:58;22.30;77.60
2226;DHT22;1119;48.288;8.726;2023-09-19T12:11:29;22.40;74.90
2226;DHT22;1119;48.288;8.726;2023-09-19T12:13:59;22.40;73.90
2226;DHT22;1119;48.288;8.726;2023-09-19T12:16:28;22.40;75.60
2226;DHT22;1119;48.288;8.726;2023-09-19T12:18:57;22.40;75.20
2226;DHT22;1119;48.288;8.726;2023-09-19T12:21:26;22.40;77.10
2226;DHT22;1119;48.288;8.726;2023-09-19T12:24:11;22.60;77.00
2226;DHT22;1119;48.288;8.726;2023-09-19T12:26:41;22.70;76.40
2226;DHT22;1119;48.288;8.726;2023-09-19T12:29:13;22.50;74.60
2226;DHT22;1119;48.288;8.726;2023-09-19T12:31:51;22.50;76.90
2226;DHT22;1119;48.288;8.726;2023-09-19T12:34:22;22.50;75.80
2226;DHT22;1119;48.288;8.726;2023-09-19T12:37:12;22.50;76.10
2226;DHT22;1119;48.288;8.726;2023-09-19T12:39:43;22.70;74.50
2226;DHT22;1119;48.288;8.726;2023-09-19T12:42:15;22.80;72.40
2226;DHT22;1119;48.288;8.726;2023-09-19T12:44:45;22.60;72.50
2226;DHT22;1119;48.288;8.726;2023-09-19T12:47:16;22.50;72.80
2226;DHT22;1119;48.288;8.726;2023-09-19T12:50:08;22.30;74.40
2226;DHT22;1119;48.288;8.726;2023-09-19T12:52:45;22.30;74.90
2226;DHT22;1119;48.288;8.726;2023-09-19T12:55:24;22.30;74.70
2226;DHT22;1119;48.288;8.726;2023-09-19T12:58:00;22.30;73.60
2226;DHT22;1119;48.288;8.726;2023-09-19T13:00:37;22.30;73.60
2226;DHT22;1119;48.288;8.726;2023-09-19T13:03:17;22.40;72.70
2226;DHT22;1119;48.288;8.726;2023-09-19T13:06:00;22.30;72.00
2226;DHT22;1119;48.288;8.726;2023-09-19T13:08:32;22.30;72.80
2226;DHT22;1119;48.288;8.726;2023-09-19T13:11:11;22.30;71.70
2226;DHT22;1119;48.288;8.726;2023-09-19T13:13:42;22.30;71.50
2226;DHT22;1119;48.288;8.726;2023-09-19T13:16:11;22.30;72.50
2226;DHT22;1119;48.288;8.726;2023-09-19T13:18:48;22.30;72.40
2226;DHT22;1119;48.288;8.726;2023-09-19T13:21:28;22.30;73.90
2226;DHT22;1119;48.288;8.726;2023-09-19T13:24:19;22.40;75.20
2226;DHT22;1119;48.288;8.726;2023-09-19T13:26:48;22.50;75.40
2226;DHT22;1119;48.288;8.726;2023-09-19T13:29:16;22.50;75.80
2226;DHT22;1119;48.288;8.726;2023-09-19T13:31:46;22.40;76.30
2226;DHT22;1119;48.288;8.726;2023-09-19T13:34:15;22.30;75.00
2226;DHT22;1119;48.288;8.726;2023-09-19T13:36:44;22.30;73.50
2226;DHT22;1119;48.288;8.726;2023-09-19T13:39:14;22.30;75.10
2226;DHT22;1119;48.288;8.726;2023-09-19T13:41:41;22.30;74.40
2226;DHT22;1119;48.288;8.726;2023-09-19T13:44:09;22.30;74.20
2226;DHT22;1119;48.288;8.726;2023-09-19T13:46:37;22.20;74.10
2226;DHT22;1119;48.288;8.726;2023-09-19T13:49:05;22.20;76.40
2226;DHT22;1119;48.288;8.726;2023-09-19T13:51:33;22.20;75.30
2226;DHT22;1119;48.288;8.726;2023-09-19T13:54:01;22.30;76.20
2226;DHT22;1119;48.288;8.726;2023-09-19T13:56:28;22.30;75.30
2226;DHT22;1119;48.288;8.726;2023-09-19T13:58:57;22.30;72.90
2226;DHT22;1119;48.288;8.726;2023-09-19T14:01:24;22.30;72.10
2226;DHT22;1119;48.288;8.726;2023-09-19T14:03:52;22.30;73.10
2226;DHT22;1119;48.288;8.726;2023-09-19T14:06:22;22.20;74.70
2226;DHT22;1119;48.288;8.726;2023-09-19T14:08:51;22.30;75.00
2226;DHT22;1119;48.288;8.726;2023-09-19T14:11:18;22.30;72.80
2226;DHT22;1119;48.288;8.726;2023-09-19T14:13:46;22.20;69.90
2226;DHT22;1119;48.288;8.726;2023-09-19T14:16:16;22.10;67.90
2226;DHT22;1119;48.288;8.726;2023-09-19T14:18:44;22.10;69.00
2226;DHT22;1119;48.288;8.726;2023-09-19T14:21:12;22.00;69.30
2226;DHT22;1119;48.288;8.726;2023-09-19T14:23:40;22.10;70.60
2226;DHT22;1119;48.288;8.726;2023-09-19T14:26:10;22.10;69.90
2226;DHT22;1119;48.288;8.726;2023-09-19T14:28:38;22.10;69.30
2226;DHT22;1119;48.288;8.726;2023-09-19T14:31:06;22.10;69.70
2226;DHT22;1119;48.288;8.726;2023-09-19T14:33:33;22.20;70.60
2226;DHT22;1119;48.288;8.726;2023-09-19T14:36:03;22.20;68.20
2226;DHT22;1119;48.288;8.726;2023-09-19T14:38:33;22.10;69.40
2226;DHT22;1119;48.288;8.726;2023-09-19T14:41:01;22.20;68.50
2226;DHT22;1119;48.288;8.726;2023-09-19T14:43:30;22.20;67.60
2226;DHT22;1119;48.288;8.726;2023-09-19T14:46:02;22.20;66.40
2226;DHT22;1119;48.288;8.726;2023-09-19T14:48:30;22.30;67.70
2226;DHT22;1119;48.288;8.726;2023-09-19T14:51:02;22.40;66.20
2226;DHT22;1119;48.288;8.726;2023-09-19T14:53:30;22.40;66.80
2226;DHT22;1119;48.288;8.726;2023-09-19T14:56:00;22.50;67.50
2226;DHT22;1119;48.288;8.726;2023-09-19T14:58:30;22.50;65.80
2226;DHT22;1119;48.288;8.726;2023-09-19T15:01:03;22.50;70.10
2226;DHT22;1119;48.288;8.726;2023-09-19T15:03:32;22.60;69.50
2226;DHT22;1119;48.288;8.726;2023-09-19T15:06:01;22.70;65.60
2226;DHT22;1119;48.288;8.726;2023-09-19T15:08:28;22.80;66.70
2226;DHT22;1119;48.288;8.726;2023-09-19T15:10:56;22.70;64.70
2226;DHT22;1119;48.288;8.726;2023-09-19T15:13:24;22.60;63.70
2226;DHT22;1119;48.288;8.726;2023-09-19T15:15:59;22.50;65.30
2226;DHT22;1119;48.288;8.726;2023-09-19T15:18:28;22.40;66.10
2226;DHT22;1119;48.288;8.726;2023-09-19T15:20:56;22.50;65.00
2226;DHT22;1119;48.288;8.726;2023-09-19T15:23:24;22.50;67.40
2226;DHT22;1119;48.288;8.726;2023-09-19T15:25:51;22.60;68.90
2226;DHT22;1119;48.288;8.726;2023-09-19T15:28:19;22.60;64.50
2226;DHT22;1119;48.288;8.726;2023-09-19T15:30:48;22.60;64.30
2226;DHT22;1119;48.288;8.726;2023-09-19T15:33:17;22.50;66.70
2226;DHT22;1119;48.288;8.726;2023-09-19T15:35:45;22.50;64.40
2226;DHT22;1119;48.288;8.726;2023-09-19T15:38:12;22.30;65.80
2226;DHT22;1119;48.288;8.726;2023-09-19T15:40:46;22.20;66.10
2226;DHT22;1119;48.288;8.726;2023-09-19T15:43:13;22.20;67.00
2226;DHT22;1119;48.288;8.726;2023-09-19T15:45:43;22.20;66.80
2226;DHT22;1119;48.288;8.726;2023-09-19T15:48:10;22.10;65.30
2226;DHT22;1119;48.288;8.726;2023-09-19T15:50:39;22.10;67.80
2226;DHT22;1119;48.288;8.726;2023-09-19T15:53:07;22.00;68.00
2226;DHT22;1119;48.288;8.726;2023-09-19T15:55:38;22.00;67.40
2226;DHT22;1119;48.288;8.726;2023-09-19T15:58:06;21.90;67.10
2226;DHT22;1119;48.288;8.726;2023-09-19T16:00:34;21.90;66.70
2226;DHT22;1119;48.288;8.726;2023-09-19T16:03:02;21.90;67.50
2226;DHT22;1119;48.288;8.726;2023-09-19T16:05:35;21.90;69.40
2226;DHT22;1119;48.288;8.726;2023-09-19T16:08:07;21.80;69.50
2226;DHT22;1119;48.288;8.726;2023-09-19T16:10:35;21.90;69.10
2226;DHT22;1119;48.288;8.726;2023-09-19T16:13:04;21.70;69.60
2226;DHT22;1119;48.288;8.726;2023-09-19T16:15:31;21.60;69.40
2226;DHT22;1119;48.288;8.726;2023-09-19T16:17:59;21.50;69.10
2226;DHT22;1119;48.288;8.726;2023-09-19T16:20:28;21.40;69.90
2226;DHT22;1119;48.288;8.726;2023-09-19T16:22:59;21.40;69.60
2226;DHT22;1119;48.288;8.726;2023-09-19T16:25:29;21.40;69.90
2226;DHT22;1119;48.288;8.726;2023-09-19T16:27:58;21.30;70.60
2226;DHT22;1119;48.288;8.726;2023-09-19T16:30:25;21.30;71.00
2226;DHT22;1119;48.288;8.726;2023-09-19T16:32:52;21.20;71.60